createdAt,value
2018-09-01T00:01:05.641Z,10.87
2018-09-01T00:03:34.574Z,12.13
2018-09-01T00:06:03.653Z,12.00
2018-09-01T00:08:32.462Z,11.07
2018-09-01T00:11:01.750Z,12.43
2018-09-01T00:13:32.895Z,12.43
2018-09-01T00:16:01.723Z,11.70
2018-09-01T00:18:30.547Z,12.23
2018-09-01T00:20:59.371Z,12.80
2018-09-01T00:23:28.146Z,12.53
2018-09-01T00:25:56.950Z,12.77
2018-09-01T00:28:25.991Z,12.90
2018-09-01T00:30:54.454Z,12.30
2018-09-01T00:33:23.258Z,12.20
2018-09-01T00:35:52.878Z,12.90
2018-09-01T00:38:26.890Z,12.97
2018-09-01T00:40:57.438Z,13.30
2018-09-01T00:43:26.223Z,12.73
2018-09-01T00:45:55.056Z,12.80
2018-09-01T00:48:27.118Z,13.30
2018-09-01T00:50:55.921Z,14.20
2018-09-01T00:53:24.711Z,12.53
2018-09-01T00:55:55.063Z,13.77
2018-09-01T00:58:23.862Z,13.60
2018-09-01T01:00:52.666Z,12.87
2018-09-01T01:03:23.255Z,14.30
2018-09-01T01:05:52.075Z,13.10
2018-09-01T01:08:20.904Z,13.23
2018-09-01T01:10:49.732Z,14.43
2018-09-01T01:13:18.512Z,13.10
2018-09-01T01:15:47.304Z,14.43
2018-09-01T01:18:17.244Z,13.23
2018-09-01T01:20:46.089Z,14.37
2018-09-01T01:23:14.484Z,13.60
2018-09-01T01:25:42.941Z,14.13
2018-09-01T01:28:11.757Z,15.00
2018-09-01T01:30:40.585Z,13.10
2018-09-01T01:33:09.399Z,13.90
2018-09-01T01:35:38.230Z,13.43
2018-09-01T01:38:06.616Z,13.33
2018-09-01T01:40:36.461Z,13.47
2018-09-01T01:43:04.956Z,14.30
2018-09-01T01:45:33.802Z,13.90
2018-09-01T01:48:02.816Z,14.80
2018-09-01T01:50:31.617Z,13.93
2018-09-01T01:53:00.460Z,14.50
2018-09-01T01:55:30.875Z,13.63
2018-09-01T01:57:59.698Z,14.90
2018-09-01T02:00:28.510Z,13.00
2018-09-01T02:02:59.108Z,14.00
2018-09-01T02:05:32.433Z,13.53
2018-09-01T02:08:01.729Z,15.40
2018-09-01T02:10:30.519Z,13.63
2018-09-01T02:12:59.334Z,14.90
2018-09-01T02:15:30.061Z,13.93
2018-09-01T02:17:58.854Z,14.43
2018-09-01T02:20:27.636Z,14.00
2018-09-01T02:22:56.009Z,14.60
2018-09-01T02:25:24.808Z,14.30
2018-09-01T02:27:53.623Z,14.50
2018-09-01T02:30:22.406Z,14.17
2018-09-01T02:32:51.199Z,14.23
2018-09-01T02:35:20.034Z,14.70
2018-09-01T02:37:48.839Z,16.07
2018-09-01T02:40:17.638Z,14.80
2018-09-01T02:42:46.446Z,15.47
2018-09-01T02:45:15.262Z,14.77
2018-09-01T02:47:44.069Z,15.10
2018-09-01T02:50:13.158Z,15.03
2018-09-01T02:52:42.009Z,14.87
2018-09-01T02:55:10.845Z,14.90
2018-09-01T02:57:41.403Z,15.70
2018-09-01T03:00:15.443Z,14.87
2018-09-01T03:02:46.179Z,16.30
2018-09-01T03:05:16.246Z,14.40
2018-09-01T03:07:45.254Z,15.90
2018-09-01T03:10:14.084Z,15.40
2018-09-01T03:12:42.894Z,15.80
2018-09-01T03:15:12.953Z,14.40
2018-09-01T03:17:41.767Z,14.80
2018-09-01T03:20:10.573Z,15.87
2018-09-01T03:22:41.949Z,15.50
2018-09-01T03:25:10.742Z,15.97
2018-09-01T03:27:39.587Z,15.00
2018-09-01T03:30:08.760Z,15.30
2018-09-01T03:32:37.558Z,15.63
2018-09-01T03:35:06.750Z,15.37
2018-09-01T03:37:36.518Z,16.03
2018-09-01T03:40:06.033Z,15.73
2018-09-01T03:42:34.446Z,15.67
2018-09-01T03:45:04.666Z,15.30
2018-09-01T03:47:33.538Z,14.77
2018-09-01T03:50:02.455Z,14.87
2018-09-01T03:52:31.224Z,15.17
2018-09-01T03:55:00.053Z,16.80
2018-09-01T03:57:28.847Z,16.00
2018-09-01T03:59:57.948Z,16.63
2018-09-01T04:02:26.808Z,14.87
2018-09-01T04:04:55.619Z,16.37
2018-09-01T04:07:24.479Z,15.57
2018-09-01T04:09:52.864Z,16.83
2018-09-01T04:12:21.637Z,16.20
2018-09-01T04:14:50.586Z,15.83
2018-09-01T04:17:19.383Z,16.83
2018-09-01T04:19:48.207Z,16.10
2018-09-01T04:22:17.775Z,15.73
2018-09-01T04:24:46.555Z,17.10
2018-09-01T04:27:15.361Z,15.47
2018-09-01T04:29:44.188Z,16.70
2018-09-01T04:32:13.001Z,16.93
2018-09-01T04:34:41.378Z,15.67
2018-09-01T04:37:12.106Z,16.50
2018-09-01T04:39:40.947Z,15.57
2018-09-01T04:42:09.356Z,15.50
2018-09-01T04:44:37.809Z,15.10
2018-09-01T04:47:06.863Z,16.20
2018-09-01T04:49:35.554Z,15.80
2018-09-01T04:52:04.562Z,14.80
2018-09-01T04:54:33.362Z,17.13
2018-09-01T04:57:02.159Z,15.83
2018-09-01T04:59:31.723Z,16.03
2018-09-01T05:02:00.529Z,14.80
2018-09-01T05:04:29.345Z,16.50
2018-09-01T05:06:58.149Z,16.70
2018-09-01T05:09:26.937Z,16.80
2018-09-01T05:11:55.738Z,16.87
2018-09-01T05:14:25.480Z,16.20
2018-09-01T05:16:54.389Z,17.23
2018-09-01T05:19:23.267Z,16.20
2018-09-01T05:21:52.099Z,16.97
2018-09-01T05:24:20.912Z,16.40
2018-09-01T05:26:49.713Z,16.90
2018-09-01T05:29:19.734Z,17.17
2018-09-01T05:31:48.495Z,17.53
2018-09-01T05:34:17.277Z,16.73
2018-09-01T05:36:46.363Z,19.00
2018-09-01T05:39:15.181Z,18.13
2018-09-01T05:41:44.012Z,17.47
2018-09-01T05:44:12.843Z,17.80
2018-09-01T05:46:41.648Z,16.43
2018-09-01T05:49:10.428Z,15.73
2018-09-01T05:51:39.851Z,16.13
2018-09-01T05:54:08.717Z,16.30
2018-09-01T05:56:37.502Z,16.73
2018-09-01T05:59:06.965Z,16.37
2018-09-01T06:01:35.867Z,17.50
2018-09-01T06:04:04.661Z,17.10
2018-09-01T06:06:33.784Z,18.13
2018-09-01T06:09:02.671Z,17.07
2018-09-01T06:11:31.470Z,16.00
2018-09-01T06:14:00.276Z,15.97
2018-09-01T06:16:29.062Z,15.80
2018-09-01T06:18:57.894Z,15.07
2018-09-01T06:21:27.021Z,14.67
2018-09-01T06:23:55.895Z,15.07
2018-09-01T06:26:24.661Z,15.53
2018-09-01T06:28:58.854Z,15.37
2018-09-01T06:31:27.693Z,13.63
2018-09-01T06:33:56.546Z,15.17
2018-09-01T06:36:25.909Z,16.10
2018-09-01T06:38:54.698Z,16.00
2018-09-01T06:41:23.481Z,16.50
2018-09-01T06:43:52.849Z,16.97
2018-09-01T06:46:21.634Z,22.77
2018-09-01T06:48:50.801Z,17.93
2018-09-01T06:51:21.476Z,16.27
2018-09-01T06:53:50.266Z,16.30
2018-09-01T06:56:19.200Z,16.10
2018-09-01T06:58:49.537Z,18.60
2018-09-01T07:01:19.196Z,15.13
2018-09-01T07:03:47.992Z,16.17
2018-09-01T07:06:17.673Z,15.57
2018-09-01T07:08:46.591Z,15.03
2018-09-01T07:11:16.166Z,17.77
2018-09-01T07:13:46.394Z,16.30
2018-09-01T07:16:15.195Z,15.13
2018-09-01T07:18:44.090Z,14.60
2018-09-01T07:21:13.321Z,14.20
2018-09-01T07:23:42.184Z,13.33
2018-09-01T07:26:10.971Z,14.27
2018-09-01T07:28:39.856Z,14.60
2018-09-01T07:31:09.019Z,14.20
2018-09-01T07:33:37.889Z,13.23
2018-09-01T07:36:07.243Z,13.50
2018-09-01T07:38:36.078Z,13.80
2018-09-01T07:41:05.000Z,23.43
2018-09-01T07:43:34.259Z,14.83
2018-09-01T07:46:03.087Z,14.50
2018-09-01T07:48:31.890Z,14.20
2018-09-01T07:51:00.968Z,14.03
2018-09-01T07:53:29.841Z,14.57
2018-09-01T07:55:58.734Z,14.40
2018-09-01T07:58:29.296Z,13.67
2018-09-01T08:00:59.005Z,12.87
2018-09-01T08:03:27.867Z,13.00
2018-09-01T08:05:57.512Z,11.57
2018-09-01T08:08:31.036Z,11.07
2018-09-01T08:11:03.615Z,11.43
2018-09-01T08:13:32.506Z,10.77
2018-09-01T08:16:01.436Z,10.70
2018-09-01T08:18:31.714Z,8.87
2018-09-01T08:21:00.547Z,8.93
2018-09-01T08:23:29.338Z,10.57
2018-09-01T08:25:58.115Z,9.77
2018-09-01T08:28:27.025Z,9.53
2018-09-01T08:32:26.317Z,10.40
2018-09-01T08:34:55.108Z,10.47
2018-09-01T08:37:23.896Z,9.00
2018-09-01T08:39:52.737Z,9.53
2018-09-01T08:42:21.509Z,11.10
2018-09-01T08:44:50.653Z,8.70
2018-09-01T08:47:19.489Z,14.20
2018-09-01T08:49:48.274Z,9.23
2018-09-01T08:52:18.345Z,9.50
2018-09-01T08:54:47.245Z,9.37
2018-09-01T08:57:16.054Z,8.63
2018-09-01T08:59:45.208Z,9.20
2018-09-01T09:02:14.079Z,9.97
2018-09-01T09:04:43.754Z,9.20
2018-09-01T09:07:14.089Z,8.53
2018-09-01T09:09:43.030Z,8.80
2018-09-01T09:12:11.853Z,9.67
2018-09-01T09:14:41.621Z,8.33
2018-09-01T09:17:10.486Z,8.53
2018-09-01T09:19:39.445Z,10.77
2018-09-01T09:22:10.332Z,9.00
2018-09-01T09:24:39.515Z,8.27
2018-09-01T09:27:08.607Z,8.50
2018-09-01T09:29:37.995Z,9.17
2018-09-01T09:32:07.153Z,10.17
2018-09-01T09:34:36.214Z,8.23
2018-09-01T09:37:06.941Z,8.40
2018-09-01T09:39:36.004Z,10.47
2018-09-01T09:42:05.330Z,8.30
2018-09-01T09:44:35.483Z,7.53
2018-09-01T09:47:04.756Z,8.00
2018-09-01T09:49:34.907Z,8.23
2018-09-01T09:52:06.733Z,7.40
2018-09-01T09:54:35.597Z,8.07
2018-09-01T09:57:04.609Z,7.87
2018-09-01T09:59:34.625Z,8.40
2018-09-01T10:02:04.601Z,9.93
2018-09-01T10:04:33.594Z,8.77
2018-09-01T10:07:03.490Z,8.10
2018-09-01T10:09:32.294Z,7.97
2018-09-01T10:12:01.093Z,8.83
2018-09-01T10:14:31.408Z,7.73
2018-09-01T10:17:00.254Z,8.97
2018-09-01T10:19:29.081Z,8.17
2018-09-01T10:21:58.145Z,7.40
2018-09-01T10:24:26.915Z,7.80
2018-09-01T10:26:56.062Z,7.83
2018-09-01T10:29:26.007Z,8.33
2018-09-01T10:31:55.092Z,9.08
2018-09-01T10:34:24.218Z,8.00
2018-09-01T10:36:54.410Z,7.50
2018-09-01T10:39:23.202Z,8.30
2018-09-01T10:41:52.044Z,7.80
2018-09-01T10:44:22.509Z,8.37
2018-09-01T10:46:51.355Z,9.00
2018-09-01T10:49:20.281Z,7.77
2018-09-01T10:51:51.344Z,8.00
2018-09-01T10:54:20.265Z,8.80
2018-09-01T10:56:49.323Z,7.40
2018-09-01T10:59:18.639Z,8.50
2018-09-01T11:01:47.587Z,8.10
2018-09-01T11:04:16.715Z,7.90
2018-09-01T11:06:45.939Z,8.17
2018-09-01T11:09:15.034Z,7.90
2018-09-01T11:11:44.153Z,7.77
2018-09-01T11:14:14.514Z,8.03
2018-09-01T11:16:43.598Z,8.53
2018-09-01T11:19:13.258Z,7.90
2018-09-01T11:21:42.600Z,8.50
2018-09-01T11:24:11.520Z,10.80
2018-09-01T11:26:40.458Z,8.47
2018-09-01T11:29:09.930Z,9.23
2018-09-01T11:31:38.990Z,8.70
2018-09-01T11:34:08.114Z,7.47
2018-09-01T11:36:37.972Z,8.40
2018-09-01T11:40:10.306Z,9.83
2018-09-01T11:42:40.964Z,9.17
2018-09-01T11:45:09.707Z,9.57
2018-09-01T11:47:38.765Z,9.03
2018-09-01T11:50:07.922Z,9.40
2018-09-01T11:52:36.998Z,9.20
2018-09-01T11:55:07.220Z,9.20
2018-09-01T11:57:36.352Z,10.73
2018-09-01T12:00:05.553Z,9.17
2018-09-01T12:02:34.391Z,9.10
2018-09-01T12:05:03.276Z,8.87
2018-09-01T12:07:32.292Z,10.10
2018-09-01T12:10:02.974Z,8.83
2018-09-01T12:12:31.941Z,9.10
2018-09-01T12:15:00.942Z,9.60
2018-09-01T12:17:31.111Z,10.50
2018-09-01T12:20:00.212Z,8.80
2018-09-01T12:22:29.494Z,9.97
2018-09-01T12:24:59.265Z,9.63
2018-09-01T12:27:28.357Z,9.57
2018-09-01T12:29:57.569Z,9.33
2018-09-01T12:32:26.531Z,9.17
2018-09-01T12:34:55.608Z,10.33
2018-09-01T12:37:24.442Z,10.57
2018-09-01T12:39:53.656Z,9.40
2018-09-01T12:42:22.835Z,10.77
2018-09-01T12:44:51.912Z,8.80
2018-09-01T12:47:21.578Z,9.73
2018-09-01T12:49:50.792Z,10.13
2018-09-01T12:52:20.021Z,11.27
2018-09-01T12:54:50.119Z,9.63
2018-09-01T12:57:19.040Z,9.53
2018-09-01T12:59:48.317Z,10.00
2018-09-01T13:02:23.992Z,10.30
2018-09-01T13:04:53.126Z,10.50
2018-09-01T13:07:22.358Z,8.80
2018-09-01T13:09:51.754Z,9.57
2018-09-01T13:12:20.722Z,10.37
2018-09-01T13:14:49.896Z,9.83
2018-09-01T13:17:25.873Z,9.67
2018-09-01T13:19:55.082Z,9.17
2018-09-01T13:22:24.301Z,9.80
2018-09-01T13:24:55.586Z,9.50
2018-09-01T13:27:24.570Z,10.27
2018-09-01T13:29:53.600Z,9.87
2018-09-01T13:32:22.783Z,10.00
2018-09-01T13:34:51.802Z,9.70
2018-09-01T13:37:20.919Z,9.47
2018-09-01T13:39:50.172Z,11.43
2018-09-01T13:42:19.371Z,10.63
2018-09-01T13:44:48.569Z,9.30
2018-09-01T13:47:17.671Z,10.10
2018-09-01T13:49:46.782Z,9.27
2018-09-01T13:52:16.153Z,9.73
2018-09-01T13:54:45.435Z,9.40
2018-09-01T13:57:14.668Z,9.87
2018-09-01T13:59:43.891Z,9.80
2018-09-01T14:02:12.989Z,10.80
2018-09-01T14:04:42.079Z,9.27
2018-09-01T14:07:11.236Z,9.47
2018-09-01T14:09:40.397Z,10.10
2018-09-01T14:12:10.138Z,9.93
2018-09-01T14:14:41.205Z,9.93
2018-09-01T14:17:10.335Z,9.93
2018-09-01T14:19:39.228Z,9.90
2018-09-01T14:22:08.474Z,10.30
2018-09-01T14:24:37.263Z,10.37
2018-09-01T14:27:06.068Z,9.97
2018-09-01T14:29:35.725Z,11.30
2018-09-01T14:32:04.770Z,10.13
2018-09-01T14:34:34.116Z,10.53
2018-09-01T14:37:02.959Z,9.20
2018-09-01T14:39:32.231Z,10.27
2018-09-01T14:42:01.325Z,9.83
2018-09-01T14:44:30.799Z,10.73
2018-09-01T14:47:00.435Z,11.90
2018-09-01T14:49:29.506Z,14.73
2018-09-01T14:51:59.353Z,11.50
2018-09-01T14:54:28.539Z,10.57
2018-09-01T14:56:57.671Z,10.77
2018-09-01T14:59:28.283Z,11.20
2018-09-01T15:01:57.214Z,11.77
2018-09-01T15:04:26.416Z,11.73
2018-09-01T15:06:55.633Z,13.43
2018-09-01T15:09:24.750Z,13.77
2018-09-01T15:11:53.628Z,11.70
2018-09-01T15:14:23.294Z,11.80
2018-09-01T15:16:52.294Z,10.63
2018-09-01T15:19:21.206Z,12.47
2018-09-01T15:21:50.326Z,13.87
2018-09-01T15:24:19.330Z,11.50
2018-09-01T15:26:48.345Z,12.93
2018-09-01T15:29:17.696Z,10.73
2018-09-01T15:31:46.762Z,11.97
2018-09-01T15:34:15.858Z,12.60
2018-09-01T15:36:45.731Z,12.00
2018-09-01T15:39:14.926Z,11.53
2018-09-01T15:41:44.237Z,12.33
2018-09-01T15:44:14.351Z,12.60
2018-09-01T15:46:44.085Z,11.70
2018-09-01T15:49:13.224Z,11.90
2018-09-01T15:51:42.455Z,11.50
2018-09-01T15:54:11.717Z,10.80
2018-09-01T15:56:41.190Z,12.57
2018-09-01T15:59:10.662Z,13.17
2018-09-01T16:01:40.034Z,11.30
2018-09-01T16:04:10.326Z,13.03
2018-09-01T16:06:39.527Z,13.20
2018-09-01T16:09:08.646Z,12.50
2018-09-01T16:11:37.919Z,12.90
2018-09-01T16:14:07.210Z,12.07
2018-09-01T16:16:36.938Z,11.80
2018-09-01T16:19:05.988Z,12.90
2018-09-01T16:21:35.170Z,13.10
2018-09-01T16:24:04.384Z,14.70
2018-09-01T16:26:37.490Z,11.80
2018-09-01T16:29:06.599Z,12.53
2018-09-01T16:31:35.822Z,11.10
2018-09-01T16:34:06.238Z,12.47
2018-09-01T16:36:35.592Z,11.33
2018-09-01T16:39:05.650Z,12.07
2018-09-01T16:41:35.717Z,12.50
2018-09-01T16:44:04.723Z,12.00
2018-09-01T16:46:33.711Z,13.00
2018-09-01T16:49:02.592Z,11.97
2018-09-01T16:51:31.587Z,12.20
2018-09-01T16:54:00.612Z,11.07
2018-09-01T16:56:29.843Z,11.37
2018-09-01T16:58:58.778Z,11.67
2018-09-01T17:01:27.945Z,12.57
2018-09-01T17:03:58.183Z,11.07
2018-09-01T17:06:27.500Z,13.73
2018-09-01T17:08:56.589Z,15.30
2018-09-01T17:11:28.246Z,14.53
2018-09-01T17:13:57.495Z,15.37
2018-09-01T17:16:26.594Z,14.90
2018-09-01T17:18:56.194Z,16.30
2018-09-01T17:21:25.305Z,15.90
2018-09-01T17:23:54.336Z,15.30
2018-09-01T17:26:23.386Z,14.20
2018-09-01T17:28:52.475Z,15.70
2018-09-01T17:31:21.685Z,14.27
2018-09-01T17:33:50.924Z,16.00
2018-09-01T17:36:20.001Z,16.90
2018-09-01T17:38:49.092Z,18.37
2018-09-01T17:41:18.677Z,16.20
2018-09-01T17:43:47.765Z,14.83
2018-09-01T17:46:16.878Z,19.60
2018-09-01T17:48:46.424Z,14.50
2018-09-01T17:51:16.122Z,13.60
2018-09-01T17:53:45.246Z,14.70
2018-09-01T17:56:14.963Z,14.63
2018-09-01T17:58:43.869Z,14.20
2018-09-01T18:01:16.882Z,13.33
2018-09-01T18:03:47.334Z,13.27
2018-09-01T18:06:16.583Z,13.70
2018-09-01T18:08:46.151Z,15.00
2018-09-01T18:11:15.182Z,14.90
2018-09-01T18:13:44.314Z,48.50
2018-09-01T18:16:14.997Z,75.20
2018-09-01T18:18:44.156Z,47.27
2018-09-01T18:21:13.165Z,47.40
2018-09-01T18:23:42.401Z,37.07
2018-09-01T18:26:11.486Z,26.53
2018-09-01T18:28:40.707Z,22.60
2018-09-01T18:31:10.151Z,16.60
2018-09-01T18:33:39.347Z,14.87
2018-09-01T18:36:08.432Z,14.43
2018-09-01T18:38:39.318Z,14.73
2018-09-01T18:41:08.441Z,14.83
2018-09-01T18:43:37.716Z,14.33
2018-09-01T18:46:08.370Z,14.33
2018-09-01T18:48:37.489Z,14.07
2018-09-01T18:51:06.507Z,14.27
2018-09-01T18:53:37.122Z,14.53
2018-09-01T18:56:06.270Z,13.83
2018-09-01T18:58:35.700Z,14.20
2018-09-01T19:01:04.852Z,13.67
2018-09-01T19:03:33.897Z,14.50
2018-09-01T19:06:02.951Z,16.40
2018-09-01T19:08:33.247Z,13.17
2018-09-01T19:11:02.183Z,16.23
2018-09-01T19:13:31.455Z,14.80
2018-09-01T19:16:00.858Z,15.70
2018-09-01T19:18:30.022Z,13.87
2018-09-01T19:20:58.872Z,14.60
2018-09-01T19:23:29.194Z,14.00
2018-09-01T19:25:58.483Z,12.53
2018-09-01T19:28:27.615Z,14.63
2018-09-01T19:30:58.266Z,14.00
2018-09-01T19:33:27.455Z,13.97
2018-09-01T19:35:56.781Z,13.47
2018-09-01T19:38:25.936Z,13.80
2018-09-01T19:40:55.116Z,14.00
2018-09-01T19:43:24.224Z,12.53
2018-09-01T19:45:54.250Z,19.07
2018-09-01T19:48:23.472Z,13.30
2018-09-01T19:50:52.592Z,13.03
2018-09-01T19:53:21.850Z,13.50
2018-09-01T19:55:51.558Z,13.37
2018-09-01T19:58:20.747Z,14.27
2018-09-01T20:00:49.849Z,14.13
2018-09-01T20:03:18.944Z,12.30
2018-09-01T20:05:48.223Z,12.40
2018-09-01T20:08:17.374Z,12.80
2018-09-01T20:10:46.631Z,13.33
2018-09-01T20:13:15.659Z,14.30
2018-09-01T20:15:44.753Z,13.30
2018-09-01T20:18:13.848Z,13.37
2018-09-01T20:20:42.797Z,12.90
2018-09-01T20:23:11.862Z,12.87
2018-09-01T20:25:41.192Z,13.10
2018-09-01T20:28:10.451Z,13.83
2018-09-01T20:30:39.548Z,12.67
2018-09-01T20:33:08.751Z,13.50
2018-09-01T20:35:44.267Z,14.77
2018-09-01T20:38:13.511Z,13.03
2018-09-01T20:40:42.614Z,13.90
2018-09-01T20:43:11.855Z,13.23
2018-09-01T20:45:40.859Z,13.40
2018-09-01T20:48:09.720Z,13.30
2018-09-01T20:50:39.713Z,14.17
2018-09-01T20:53:08.801Z,12.90
2018-09-01T20:55:37.859Z,14.00
2018-09-01T20:58:07.171Z,12.60
2018-09-01T21:00:36.130Z,13.73
2018-09-01T21:03:05.952Z,14.80
2018-09-01T21:05:35.102Z,13.40
2018-09-01T21:08:04.354Z,13.10
2018-09-01T21:10:33.511Z,13.53
2018-09-01T21:13:03.366Z,13.37
2018-09-01T21:15:32.458Z,14.37
2018-09-01T21:18:01.566Z,13.63
2018-09-01T21:20:30.815Z,12.07
2018-09-01T21:22:59.984Z,11.87
2018-09-01T21:25:29.092Z,14.20
2018-09-01T21:27:58.767Z,13.07
2018-09-01T21:30:27.947Z,12.43
2018-09-01T21:33:00.152Z,12.37
2018-09-01T21:35:29.374Z,13.00
2018-09-01T21:37:58.446Z,12.30
2018-09-01T21:40:29.075Z,12.80
2018-09-01T21:42:58.134Z,12.47
2018-09-01T21:45:27.141Z,12.80
2018-09-01T21:47:56.553Z,13.03
2018-09-01T21:50:25.869Z,12.17
2018-09-01T21:52:56.426Z,12.47
2018-09-01T21:55:25.568Z,12.60
2018-09-01T21:57:54.754Z,12.27
2018-09-01T22:00:24.019Z,12.30
2018-09-01T22:02:53.270Z,14.70
2018-09-01T22:05:22.512Z,13.50
2018-09-01T22:07:52.181Z,13.93
2018-09-01T22:10:21.222Z,12.73
2018-09-01T22:12:50.246Z,13.10
2018-09-01T22:15:19.538Z,13.00
2018-09-01T22:17:48.661Z,13.23
2018-09-01T22:20:17.780Z,12.60
2018-09-01T22:22:46.936Z,13.07
2018-09-01T22:25:16.049Z,12.13
2018-09-01T22:27:45.129Z,12.50
2018-09-01T22:30:15.475Z,12.10
2018-09-01T22:32:44.570Z,12.67
2018-09-01T22:35:14.357Z,12.17
2018-09-01T22:37:43.525Z,11.97
2018-09-01T22:40:12.635Z,13.53
2018-09-01T22:42:41.525Z,12.90
2018-09-01T22:45:10.964Z,12.47
2018-09-01T22:47:40.246Z,12.80
2018-09-01T22:50:09.490Z,13.03
2018-09-01T22:52:40.361Z,13.07
2018-09-01T22:55:09.453Z,12.70
2018-09-01T22:57:38.532Z,11.50
2018-09-01T23:00:07.785Z,11.57
2018-09-01T23:02:36.794Z,12.70
2018-09-01T23:05:06.005Z,12.30
2018-09-01T23:07:35.230Z,12.07
2018-09-01T23:10:05.166Z,12.73
2018-09-01T23:12:35.060Z,12.63
2018-09-01T23:15:04.301Z,13.00
2018-09-01T23:17:33.319Z,13.37
2018-09-01T23:20:03.398Z,12.97
2018-09-01T23:22:32.467Z,13.40
2018-09-01T23:25:01.577Z,12.87
2018-09-01T23:27:31.674Z,13.20
2018-09-01T23:30:00.920Z,12.57
2018-09-01T23:32:29.934Z,12.77
2018-09-01T23:34:59.765Z,12.70
2018-09-01T23:37:28.991Z,12.47
2018-09-01T23:39:58.726Z,13.00
2018-09-01T23:42:28.044Z,13.50
2018-09-01T23:44:56.943Z,12.73
2018-09-01T23:47:26.773Z,12.30
2018-09-01T23:49:56.887Z,12.70
2018-09-01T23:52:26.245Z,12.60
2018-09-01T23:54:55.355Z,13.47
2018-09-01T23:57:25.588Z,12.83
2018-09-01T23:59:55.202Z,12.60
